Startpagina
METAR-TAF:

METAR-TAF

Vliegvelden :

Wolgograd, Rusland

breedte: 48-47N, lengte: 044-22E, hoogte: 145 m

Actueel weer

Dit bericht is 38 minuten geleden gemaakt, om 08:30 UTC
Wind 19 kt uit het oostnoordoosten
Temperatuur 18°C
Vochtigheid 42%
Druk 1028 hPa
Zicht 10 km of meer
geen wolken onder 1500 m en geen cumulonimbus

METAR: URWW 230830Z 07010MPS CAVOK 18/05 Q1028 R06/010070 NOSIG

Tijdstip: 12:08 (09:08 UTC)

Verwachting

Dit bericht is 1 uur en het 8 minuten geleden gemaakt, om 08:00 UTC
Verwachting geldig van 23 om 09 UTC tot 23 om 18 UTC
Wind 17 kt uit het oosten met uitschieters tot 29 kt
Zicht 10 km of meer
geen wolken onder 1500 m en geen cumulonimbus
Tijdelijke
van 23 om 09 UTC tot 23 om 18 UTC
Wind 25 kt uit het noordoosten met uitschieters tot 35 kt
Zicht: 3100 m

TAF: URWW 230800Z 2309/2318 09009G15MPS CAVOK TEMPO 2309/2318 05013G18MPS 3100 -DS

Waarnemingen en weersverwachtingen van meer dan 4000 vliegvelden (METAR en TAF).

De beschikbare stations zijn de gele en rode punten op de kaart.

Ga met uw muis naar het station om de naam te zien.

Klik dan om waarnemingen en weersverwachtingen te zien.

kaart wijzigen: klik op de groene knoppen met een zwart kruis om in te zoomen, op de groene knop met een streepje om uit te zoomen of op de groene pijlen voor aangrenzende kaarten.


METAR-TAF: